Time;durP1;ratioP1;P1;durP2;ratioP2;P2;SDS_P1;SDS_P2;PMS_P1;PMS_P2;Temp;Humidity;BMP_temperature;BMP_pressure;BME280_temperature;BME280_humidity;BME280_pressure;Samples;Min_cycle;Max_cycle;Signal;HPM_P1;HPM_P2
2022/06/20 00:00:48;;;;;;;;;;;12.70;99.90;;;;;;5005707;28;19909;-73
2022/06/20 00:03:25;;;;;;;;;;;12.80;99.90;;;;;;5001277;28;19906;-72
2022/06/20 00:05:52;;;;;;;;;;;12.80;99.90;;;;;;5002715;28;20314;-72
2022/06/20 00:08:18;;;;;;;;;;;12.90;99.90;;;;;;5003357;28;20004;-75
2022/06/20 00:10:45;;;;;;;;;;;13.00;99.90;;;;;;5004278;28;20062;-76
2022/06/20 00:13:19;;;;;;;;;;;12.90;99.90;;;;;;5003439;28;19956;-75
2022/06/20 00:15:46;;;;;;;;;;;13.00;99.90;;;;;;5000941;28;19905;-79
2022/06/20 00:18:13;;;;;;;;;;;13.00;99.90;;;;;;5004481;28;19928;-75
2022/06/20 00:20:40;;;;;;;;;;;13.00;99.90;;;;;;5003029;28;19906;-73
2022/06/20 00:23:06;;;;;;;;;;;13.00;99.90;;;;;;5004536;28;19916;-74
2022/06/20 00:25:34;;;;;;;;;;;13.00;99.90;;;;;;5009771;28;19940;-72
2022/06/20 00:28:00;;;;;;;;;;;13.00;99.90;;;;;;5007883;28;19906;-75
2022/06/20 00:30:27;;;;;;;;;;;13.00;99.90;;;;;;5011613;28;19986;-75
2022/06/20 00:32:54;;;;;;;;;;;13.10;99.90;;;;;;5012428;28;20362;-75
2022/06/20 00:35:21;;;;;;;;;;;13.00;99.90;;;;;;4998275;28;20319;-75
2022/06/20 00:37:48;;;;;;;;;;;13.00;99.90;;;;;;5000066;28;19913;-73
2022/06/20 00:40:24;;;;;;;;;;;13.10;99.90;;;;;;5005038;28;19906;-73
2022/06/20 00:42:51;;;;;;;;;;;13.10;99.90;;;;;;4999598;28;19918;-73
2022/06/20 00:45:19;;;;;;;;;;;13.10;99.90;;;;;;4995460;28;20279;-75
2022/06/20 00:47:46;;;;;;;;;;;13.20;99.90;;;;;;4999019;28;19912;-73
2022/06/20 00:50:17;;;;;;;;;;;13.10;99.90;;;;;;5008070;28;19905;-74
2022/06/20 00:52:46;;;;;;;;;;;13.10;99.90;;;;;;5008792;28;19906;-72
2022/06/20 00:55:13;;;;;;;;;;;13.10;99.90;;;;;;5017264;28;19905;-72
2022/06/20 00:57:55;;;;;;;;;;;13.20;99.90;;;;;;5016890;28;20012;-74
2022/06/20 01:00:24;;;;;;;;;;;13.10;99.90;;;;;;5007593;28;19917;-72
2022/06/20 01:02:53;;;;;;;;;;;13.10;99.90;;;;;;5006231;28;19905;-73
2022/06/20 01:05:20;;;;;;;;;;;13.10;99.90;;;;;;5006831;28;19909;-72
2022/06/20 01:08:05;;;;;;;;;;;13.20;99.90;;;;;;5008069;28;19929;-75
2022/06/20 01:10:35;;;;;;;;;;;13.20;99.90;;;;;;5017035;28;19909;-76
2022/06/20 01:13:07;;;;;;;;;;;13.20;99.90;;;;;;5017450;28;19905;-72
2022/06/20 01:15:36;;;;;;;;;;;13.20;99.90;;;;;;5017115;28;20534;-74
2022/06/20 01:18:03;;;;;;;;;;;13.20;99.90;;;;;;5012848;28;19917;-76
2022/06/20 01:20:36;;;;;;;;;;;13.30;99.90;;;;;;5006936;28;19969;-75
2022/06/20 01:23:03;;;;;;;;;;;13.30;99.90;;;;;;5004057;28;19921;-74
2022/06/20 01:25:33;;;;;;;;;;;13.40;99.90;;;;;;5005852;28;20526;-76
2022/06/20 01:28:01;;;;;;;;;;;13.40;99.90;;;;;;5015482;28;20325;-74
2022/06/20 01:30:29;;;;;;;;;;;13.50;99.90;;;;;;5013884;28;19988;-73
2022/06/20 01:32:57;;;;;;;;;;;13.50;99.90;;;;;;5014738;28;20398;-75
2022/06/20 01:38:12;;;;;;;;;;;13.50;99.90;;;;;;5014937;28;20393;-74
2022/06/20 01:42:18;;;;;;;;;;;13.60;99.90;;;;;;5014133;28;19906;-74
2022/06/20 01:43:28;;;;;;;;;;;13.60;99.90;;;;;;5015213;28;19912;-76
2022/06/20 01:45:58;;;;;;;;;;;13.70;99.90;;;;;;5011802;28;19905;-73
2022/06/20 01:48:27;;;;;;;;;;;13.70;99.90;;;;;;5013923;28;19912;-73
2022/06/20 01:50:54;;;;;;;;;;;13.80;99.90;;;;;;5012500;28;19914;-74
2022/06/20 01:53:23;;;;;;;;;;;13.90;99.90;;;;;;5014489;28;19905;-76
2022/06/20 01:55:51;;;;;;;;;;;13.90;99.90;;;;;;5014022;28;19909;-73
2022/06/20 01:58:34;;;;;;;;;;;13.90;99.90;;;;;;5012350;28;20333;-75
2022/06/20 02:01:02;;;;;;;;;;;14.00;99.90;;;;;;5013339;28;19905;-75
2022/06/20 02:03:30;;;;;;;;;;;14.00;99.90;;;;;;5011251;28;19920;-76
2022/06/20 02:05:57;;;;;;;;;;;14.00;99.90;;;;;;5012464;28;20404;-75
2022/06/20 02:08:25;;;;;;;;;;;14.10;99.90;;;;;;5014601;28;19928;-74
2022/06/20 02:10:54;;;;;;;;;;;14.10;99.90;;;;;;5014243;28;19996;-75
2022/06/20 02:13:22;;;;;;;;;;;14.20;99.90;;;;;;5015381;28;19909;-77
2022/06/20 02:15:50;;;;;;;;;;;14.20;99.90;;;;;;5012258;28;19905;-73
2022/06/20 02:18:17;;;;;;;;;;;14.20;99.90;;;;;;5011681;28;19913;-76
2022/06/20 02:20:46;;;;;;;;;;;14.40;99.90;;;;;;5013383;28;19993;-73
2022/06/20 02:23:15;;;;;;;;;;;14.30;99.90;;;;;;5012650;28;19909;-73
2022/06/20 02:25:44;;;;;;;;;;;14.30;99.90;;;;;;5014291;28;19920;-75
2022/06/20 02:28:14;;;;;;;;;;;14.40;99.90;;;;;;5014211;28;19905;-75
2022/06/20 02:30:42;;;;;;;;;;;14.40;99.90;;;;;;5014827;28;19906;-75
2022/06/20 02:33:11;;;;;;;;;;;14.50;99.90;;;;;;5011462;28;19906;-73
2022/06/20 02:35:39;;;;;;;;;;;14.60;99.90;;;;;;5014041;28;19913;-73
2022/06/20 02:38:07;;;;;;;;;;;14.60;99.90;;;;;;5013697;28;19919;-75
2022/06/20 02:40:34;;;;;;;;;;;14.60;99.90;;;;;;5012808;28;19913;-73
2022/06/20 02:43:09;;;;;;;;;;;14.70;99.90;;;;;;5013924;28;20251;-72
2022/06/20 02:45:38;;;;;;;;;;;14.90;99.90;;;;;;5013422;28;20277;-75
2022/06/20 02:48:06;;;;;;;;;;;14.90;99.90;;;;;;5011733;28;19917;-76
2022/06/20 02:50:36;;;;;;;;;;;14.90;99.90;;;;;;5013639;28;20357;-73
2022/06/20 02:53:07;;;;;;;;;;;14.90;99.90;;;;;;5013567;28;19914;-74
2022/06/20 02:55:35;;;;;;;;;;;14.80;99.90;;;;;;5012926;28;19913;-75
2022/06/20 02:58:05;;;;;;;;;;;14.80;99.90;;;;;;5012270;28;20388;-73
2022/06/20 03:00:35;;;;;;;;;;;14.70;99.90;;;;;;5012768;28;19910;-73
2022/06/20 03:03:09;;;;;;;;;;;14.80;99.90;;;;;;5012766;28;20296;-75
2022/06/20 03:05:37;;;;;;;;;;;14.70;99.90;;;;;;5013622;28;20004;-75
2022/06/20 03:08:04;;;;;;;;;;;14.70;99.90;;;;;;5010132;28;19906;-73
2022/06/20 03:10:42;;;;;;;;;;;14.70;99.90;;;;;;5010714;28;19905;-75
2022/06/20 03:13:10;;;;;;;;;;;14.60;99.90;;;;;;5011728;28;19906;-72
2022/06/20 03:15:38;;;;;;;;;;;14.60;99.90;;;;;;5013180;28;19905;-72
2022/06/20 03:18:06;;;;;;;;;;;14.60;99.90;;;;;;5012938;28;19913;-73
2022/06/20 03:20:34;;;;;;;;;;;14.50;99.90;;;;;;5010842;28;19992;-72
2022/06/20 03:23:07;;;;;;;;;;;14.50;99.90;;;;;;5011649;28;19992;-79
2022/06/20 03:25:35;;;;;;;;;;;14.50;99.90;;;;;;5009846;28;20285;-74
2022/06/20 03:28:02;;;;;;;;;;;14.50;99.90;;;;;;5011972;28;19959;-78
2022/06/20 03:30:34;;;;;;;;;;;14.40;99.90;;;;;;5011372;28;19944;-78
2022/06/20 03:33:03;;;;;;;;;;;14.40;99.90;;;;;;5012359;28;20420;-72
2022/06/20 03:35:31;;;;;;;;;;;14.40;99.90;;;;;;5012296;28;20047;-78
2022/06/20 03:37:59;;;;;;;;;;;14.40;99.90;;;;;;5012974;28;19975;-73
2022/06/20 03:40:27;;;;;;;;;;;14.40;99.90;;;;;;5011801;28;20000;-74
2022/06/20 03:42:55;;;;;;;;;;;14.40;99.90;;;;;;5013291;28;19910;-73
2022/06/20 03:45:24;;;;;;;;;;;14.40;99.90;;;;;;5013317;28;19925;-78
2022/06/20 03:47:53;;;;;;;;;;;14.40;99.90;;;;;;5009027;28;19909;-79
2022/06/20 03:50:25;;;;;;;;;;;14.30;99.90;;;;;;5011610;28;19905;-78
2022/06/20 03:52:57;;;;;;;;;;;14.40;99.90;;;;;;5010048;28;19996;-76
2022/06/20 03:55:30;;;;;;;;;;;14.40;99.90;;;;;;5012158;28;19960;-78
2022/06/20 03:58:15;;;;;;;;;;;14.30;99.90;;;;;;5011328;28;20405;-77
2022/06/20 04:01:03;;;;;;;;;;;14.40;99.90;;;;;;5011608;28;19910;-78
2022/06/20 04:03:50;;;;;;;;;;;14.40;99.90;;;;;;5011446;28;19909;-77
2022/06/20 04:06:39;;;;;;;;;;;14.40;99.90;;;;;;5011178;28;20004;-76
2022/06/20 04:12:15;;;;;;;;;;;14.40;99.90;;;;;;4990731;28;19910;-72
2022/06/20 04:14:46;;;;;;;;;;;14.40;99.90;;;;;;5009068;28;20359;-78
2022/06/20 04:20:05;;;;;;;;;;;14.40;99.90;;;;;;5009945;28;19955;-77
2022/06/20 04:22:34;;;;;;;;;;;14.40;99.90;;;;;;5008577;28;20389;-73
2022/06/20 04:25:18;;;;;;;;;;;14.40;99.90;;;;;;5011740;28;19906;-78
2022/06/20 04:27:48;;;;;;;;;;;14.40;99.90;;;;;;5011771;28;19906;-74
2022/06/20 04:30:23;;;;;;;;;;;14.40;99.90;;;;;;5012605;28;19905;-78
2022/06/20 04:32:56;;;;;;;;;;;14.40;99.90;;;;;;5009718;28;19909;-78
2022/06/20 04:35:26;;;;;;;;;;;14.40;99.90;;;;;;5010235;28;19937;-73
2022/06/20 04:38:10;;;;;;;;;;;14.40;99.90;;;;;;5011299;28;19913;-81
2022/06/20 04:40:40;;;;;;;;;;;14.50;99.90;;;;;;5012154;28;19944;-81
2022/06/20 04:43:13;;;;;;;;;;;14.50;99.90;;;;;;5007095;28;19963;-73
2022/06/20 04:45:42;;;;;;;;;;;14.50;99.90;;;;;;5008531;28;19906;-78
2022/06/20 04:48:17;;;;;;;;;;;14.50;99.90;;;;;;5010145;28;19912;-79
2022/06/20 04:50:46;;;;;;;;;;;14.50;99.90;;;;;;5010346;28;19906;-73
2022/06/20 04:53:15;;;;;;;;;;;14.50;99.90;;;;;;5010946;28;19909;-76
2022/06/20 04:55:54;;;;;;;;;;;14.50;99.90;;;;;;5010799;28;19905;-73
2022/06/20 04:58:28;;;;;;;;;;;14.50;99.90;;;;;;5012268;28;19919;-73
2022/06/20 05:00:56;;;;;;;;;;;14.60;99.90;;;;;;5010083;28;19905;-79
2022/06/20 05:03:35;;;;;;;;;;;14.60;99.90;;;;;;5010036;28;20081;-78
2022/06/20 05:06:03;;;;;;;;;;;14.60;99.90;;;;;;5010734;28;19914;-78
2022/06/20 05:08:36;;;;;;;;;;;14.60;99.90;;;;;;5010951;28;19992;-78
2022/06/20 05:11:02;;;;;;;;;;;14.60;99.90;;;;;;5010514;28;19906;-77
2022/06/20 05:13:41;;;;;;;;;;;14.60;99.90;;;;;;5010290;28;19909;-78
2022/06/20 05:16:16;;;;;;;;;;;14.70;99.90;;;;;;5011250;28;19905;-78
2022/06/20 05:18:44;;;;;;;;;;;14.70;99.90;;;;;;5009170;28;19917;-76
2022/06/20 05:21:17;;;;;;;;;;;14.60;99.90;;;;;;5009404;28;19949;-79
2022/06/20 05:23:49;;;;;;;;;;;14.70;99.90;;;;;;5007658;28;19964;-82
2022/06/20 05:26:36;;;;;;;;;;;14.80;99.90;;;;;;5010332;28;19932;-79
2022/06/20 05:29:04;;;;;;;;;;;14.70;99.90;;;;;;5010974;28;20354;-80
2022/06/20 05:31:33;;;;;;;;;;;14.70;99.90;;;;;;5010553;28;19910;-79
2022/06/20 05:34:03;;;;;;;;;;;14.80;99.90;;;;;;5013362;28;19905;-72
2022/06/20 05:36:34;;;;;;;;;;;14.80;99.90;;;;;;5013229;28;19912;-79
2022/06/20 05:39:12;;;;;;;;;;;14.70;99.90;;;;;;5015243;28;19909;-78
2022/06/20 05:41:40;;;;;;;;;;;14.70;99.90;;;;;;5014432;28;19909;-72
2022/06/20 05:44:11;;;;;;;;;;;14.70;99.90;;;;;;5012884;28;20294;-77
2022/06/20 05:46:41;;;;;;;;;;;14.80;99.90;;;;;;5012108;28;20354;-72
2022/06/20 05:49:13;;;;;;;;;;;14.80;99.90;;;;;;5013374;28;19905;-78
2022/06/20 05:51:41;;;;;;;;;;;14.80;99.90;;;;;;5013659;28;19961;-73
2022/06/20 05:54:14;;;;;;;;;;;14.80;99.90;;;;;;5013794;28;19905;-79
2022/06/20 05:56:46;;;;;;;;;;;14.90;99.90;;;;;;5015003;28;20282;-79
2022/06/20 05:59:32;;;;;;;;;;;14.90;99.90;;;;;;5010075;28;19913;-72
2022/06/20 06:02:01;;;;;;;;;;;14.90;99.90;;;;;;5013082;28;20321;-72
2022/06/20 06:04:39;;;;;;;;;;;15.00;99.90;;;;;;5013346;28;20324;-72
2022/06/20 06:07:13;;;;;;;;;;;15.00;99.90;;;;;;5013387;28;19918;-72
2022/06/20 06:09:49;;;;;;;;;;;15.00;99.90;;;;;;5013166;28;19913;-73
2022/06/20 06:12:21;;;;;;;;;;;14.90;99.90;;;;;;5013681;28;19910;-75
2022/06/20 06:14:50;;;;;;;;;;;14.80;99.90;;;;;;5014018;28;19905;-72
2022/06/20 06:17:27;;;;;;;;;;;14.80;99.90;;;;;;5013512;28;20378;-73
2022/06/20 06:19:56;;;;;;;;;;;14.70;99.90;;;;;;5029330;28;20486;-78
2022/06/20 06:22:23;;;;;;;;;;;14.70;99.90;;;;;;5012351;28;19905;-73
2022/06/20 06:24:53;;;;;;;;;;;14.70;99.90;;;;;;5013176;28;20346;-79
2022/06/20 06:27:22;;;;;;;;;;;14.60;99.90;;;;;;5014110;28;20358;-77
2022/06/20 06:29:52;;;;;;;;;;;14.50;99.90;;;;;;5011745;28;19913;-81
2022/06/20 06:32:21;;;;;;;;;;;14.40;99.90;;;;;;5014987;28;19913;-78
2022/06/20 06:34:52;;;;;;;;;;;14.40;99.90;;;;;;5010662;28;19905;-74
2022/06/20 06:37:22;;;;;;;;;;;14.30;99.90;;;;;;5012698;28;19920;-73
2022/06/20 06:39:49;;;;;;;;;;;14.30;99.90;;;;;;5012237;28;19911;-80
2022/06/20 06:42:16;;;;;;;;;;;14.20;99.90;;;;;;5013602;28;19906;-77
2022/06/20 06:44:44;;;;;;;;;;;14.20;99.90;;;;;;5012617;28;19909;-73
2022/06/20 06:47:25;;;;;;;;;;;14.20;99.90;;;;;;5013289;28;20000;-73
2022/06/20 06:49:56;;;;;;;;;;;14.20;99.90;;;;;;5011736;28;19975;-80
2022/06/20 06:52:23;;;;;;;;;;;14.10;99.90;;;;;;5010616;28;19913;-79
2022/06/20 06:54:53;;;;;;;;;;;14.10;99.90;;;;;;5012179;28;19913;-80
2022/06/20 06:57:26;;;;;;;;;;;14.10;99.90;;;;;;5011701;28;19913;-77
2022/06/20 07:00:14;;;;;;;;;;;14.00;99.90;;;;;;5011048;28;20377;-77
2022/06/20 07:03:03;;;;;;;;;;;14.00;99.90;;;;;;5013290;28;19949;-78
2022/06/20 07:05:56;;;;;;;;;;;14.00;99.90;;;;;;5004941;28;19948;-73
2022/06/20 07:08:26;;;;;;;;;;;13.90;99.90;;;;;;5009226;28;19913;-76
2022/06/20 07:10:59;;;;;;;;;;;13.90;99.90;;;;;;5011769;28;19912;-74
2022/06/20 07:13:38;;;;;;;;;;;13.90;99.90;;;;;;5011340;28;19916;-71
2022/06/20 07:16:11;;;;;;;;;;;13.80;99.90;;;;;;5012680;28;19916;-74
2022/06/20 07:18:41;;;;;;;;;;;13.80;99.90;;;;;;5011799;28;19917;-79
2022/06/20 07:21:12;;;;;;;;;;;13.70;99.90;;;;;;5013248;28;19905;-75
2022/06/20 07:23:39;;;;;;;;;;;13.60;99.90;;;;;;5012142;28;19916;-77
2022/06/20 07:26:06;;;;;;;;;;;13.60;99.90;;;;;;5013156;28;19960;-78
2022/06/20 07:28:39;;;;;;;;;;;13.60;99.90;;;;;;5010107;28;20232;-75
2022/06/20 07:31:14;;;;;;;;;;;13.60;99.90;;;;;;5012221;28;19915;-76
2022/06/20 07:34:07;;;;;;;;;;;13.60;99.90;;;;;;5010434;28;19992;-73
2022/06/20 07:36:53;;;;;;;;;;;13.60;99.90;;;;;;5006733;28;19960;-73
2022/06/20 07:39:26;;;;;;;;;;;13.60;99.90;;;;;;5010485;28;19910;-73
2022/06/20 07:42:02;;;;;;;;;;;13.60;99.90;;;;;;5009771;28;19914;-73
2022/06/20 07:44:35;;;;;;;;;;;13.50;99.90;;;;;;5010186;28;19906;-78
2022/06/20 07:47:12;;;;;;;;;;;13.40;99.90;;;;;;5007297;28;19910;-75
2022/06/20 07:49:49;;;;;;;;;;;13.30;99.90;;;;;;5010136;28;19906;-73
2022/06/20 07:52:20;;;;;;;;;;;13.20;99.90;;;;;;5010811;28;19913;-72
2022/06/20 07:54:55;;;;;;;;;;;13.10;99.90;;;;;;5011630;28;20481;-72
2022/06/20 07:57:24;;;;;;;;;;;13.00;99.90;;;;;;5011764;28;20351;-73
2022/06/20 07:59:55;;;;;;;;;;;13.00;99.90;;;;;;5012333;28;19990;-72
2022/06/20 08:02:43;;;;;;;;;;;12.90;99.90;;;;;;5010121;28;20105;-74
2022/06/20 08:05:13;;;;;;;;;;;12.80;99.90;;;;;;5009979;28;19906;-73
2022/06/20 08:07:43;;;;;;;;;;;12.80;99.90;;;;;;4997869;28;19914;-72
2022/06/20 08:10:32;;;;;;;;;;;12.70;99.90;;;;;;5000349;28;19937;-72
2022/06/20 08:13:02;;;;;;;;;;;12.70;99.90;;;;;;5000142;28;20459;-71
2022/06/20 08:15:32;;;;;;;;;;;12.70;99.90;;;;;;5001433;28;20317;-74
2022/06/20 08:17:59;;;;;;;;;;;12.60;99.90;;;;;;4998188;28;19914;-74
2022/06/20 08:20:27;;;;;;;;;;;12.60;99.90;;;;;;5001943;28;20385;-72
2022/06/20 08:22:56;;;;;;;;;;;12.50;99.90;;;;;;5009213;28;20358;-73
2022/06/20 08:25:24;;;;;;;;;;;12.50;99.90;;;;;;5009212;28;19909;-73
2022/06/20 08:28:01;;;;;;;;;;;12.50;99.90;;;;;;5010276;28;19905;-73
2022/06/20 08:30:34;;;;;;;;;;;12.50;99.90;;;;;;5012243;28;20512;-73
2022/06/20 08:33:18;;;;;;;;;;;12.40;99.90;;;;;;5011194;28;19906;-73
2022/06/20 08:35:51;;;;;;;;;;;12.40;99.90;;;;;;5009315;28;21493;-74
2022/06/20 08:38:24;;;;;;;;;;;12.30;99.90;;;;;;5009664;28;19913;-73
2022/06/20 08:41:11;;;;;;;;;;;12.30;99.90;;;;;;5012027;28;19999;-73
2022/06/20 08:43:42;;;;;;;;;;;12.30;99.90;;;;;;5010902;28;19905;-72
2022/06/20 08:46:12;;;;;;;;;;;12.30;99.90;;;;;;5009874;28;19980;-72
2022/06/20 08:49:05;;;;;;;;;;;12.30;99.90;;;;;;5011349;28;19909;-76
2022/06/20 08:52:10;;;;;;;;;;;12.30;99.90;;;;;;4972851;28;19910;-73
2022/06/20 08:54:36;;;;;;;;;;;12.30;99.90;;;;;;5007688;28;19906;-75
2022/06/20 08:57:16;;;;;;;;;;;12.30;99.90;;;;;;5010251;28;20008;-76
2022/06/20 09:00:00;;;;;;;;;;;12.40;99.90;;;;;;5010734;28;19916;-76
2022/06/20 09:02:27;;;;;;;;;;;12.30;99.90;;;;;;5008338;28;20000;-73
2022/06/20 09:04:57;;;;;;;;;;;12.30;99.90;;;;;;5009373;28;19912;-75
2022/06/20 09:07:23;;;;;;;;;;;12.20;99.90;;;;;;5008047;28;19948;-75
2022/06/20 09:10:08;;;;;;;;;;;12.20;99.90;;;;;;5013232;28;19905;-73
2022/06/20 09:12:37;;;;;;;;;;;12.20;99.90;;;;;;5013798;28;19948;-75
2022/06/20 09:15:22;;;;;;;;;;;12.20;99.90;;;;;;5014043;28;20358;-73
2022/06/20 09:17:55;;;;;;;;;;;12.20;99.90;;;;;;5012270;28;19940;-76
2022/06/20 09:20:35;;;;;;;;;;;12.10;99.90;;;;;;5014715;28;20446;-77
2022/06/20 09:23:11;;;;;;;;;;;12.10;99.90;;;;;;5013727;28;19912;-77
2022/06/20 09:25:50;;;;;;;;;;;12.00;99.90;;;;;;5012698;28;19909;-77
2022/06/20 09:28:16;;;;;;;;;;;12.00;99.90;;;;;;5012357;28;19912;-75
2022/06/20 09:30:56;;;;;;;;;;;12.00;99.90;;;;;;5013338;28;19915;-74
2022/06/20 09:33:38;;;;;;;;;;;11.90;99.90;;;;;;5012725;28;19917;-76
2022/06/20 09:36:31;;;;;;;;;;;11.90;99.90;;;;;;5013478;28;19913;-76
2022/06/20 09:39:13;;;;;;;;;;;11.90;99.90;;;;;;4990605;28;19917;-75
2022/06/20 09:41:40;;;;;;;;;;;11.90;99.90;;;;;;5012569;28;19964;-75
2022/06/20 09:44:09;;;;;;;;;;;11.90;99.90;;;;;;5011886;28;19912;-74
2022/06/20 09:46:36;;;;;;;;;;;11.80;99.90;;;;;;5012895;28;19920;-74
2022/06/20 09:49:23;;;;;;;;;;;11.80;99.90;;;;;;5012479;28;19909;-74
2022/06/20 09:51:57;;;;;;;;;;;11.80;99.90;;;;;;5001520;28;19909;-74
2022/06/20 09:54:42;;;;;;;;;;;11.80;99.90;;;;;;5013354;28;19909;-77
2022/06/20 09:57:30;;;;;;;;;;;11.80;99.90;;;;;;5012228;28;19963;-73
2022/06/20 10:00:04;;;;;;;;;;;11.80;99.90;;;;;;5013592;28;19951;-76
2022/06/20 10:02:49;;;;;;;;;;;11.80;99.90;;;;;;5011423;28;19905;-74
2022/06/20 10:05:19;;;;;;;;;;;11.70;99.90;;;;;;5011106;28;19909;-74
2022/06/20 10:07:46;;;;;;;;;;;11.60;99.90;;;;;;5011579;28;20021;-75
2022/06/20 10:10:19;;;;;;;;;;;11.60;99.90;;;;;;5012253;28;19905;-74
2022/06/20 10:12:49;;;;;;;;;;;11.60;99.90;;;;;;5012856;28;19905;-73
2022/06/20 10:15:30;;;;;;;;;;;11.60;99.90;;;;;;5012171;28;19905;-77
2022/06/20 10:18:09;;;;;;;;;;;11.60;99.90;;;;;;5010334;28;20365;-73
2022/06/20 10:20:36;;;;;;;;;;;11.60;99.90;;;;;;5012617;28;20022;-77
2022/06/20 10:23:13;;;;;;;;;;;11.50;99.90;;;;;;5010140;28;19953;-74
2022/06/20 10:25:56;;;;;;;;;;;11.50;99.90;;;;;;5013767;28;19952;-76
2022/06/20 10:28:30;;;;;;;;;;;11.50;99.90;;;;;;5010254;28;19916;-73
2022/06/20 10:31:19;;;;;;;;;;;11.40;99.90;;;;;;5013073;28;20404;-75
2022/06/20 10:33:50;;;;;;;;;;;11.50;99.90;;;;;;5004621;28;19906;-76
2022/06/20 10:36:21;;;;;;;;;;;11.40;99.90;;;;;;5015297;28;19905;-76
2022/06/20 10:38:56;;;;;;;;;;;11.40;99.90;;;;;;5008641;28;20012;-76
2022/06/20 10:41:46;;;;;;;;;;;11.30;99.90;;;;;;5006245;28;19956;-74
2022/06/20 10:44:23;;;;;;;;;;;11.30;99.90;;;;;;5000331;28;20429;-73
2022/06/20 10:46:56;;;;;;;;;;;11.30;99.90;;;;;;5013299;28;20385;-76
2022/06/20 10:49:35;;;;;;;;;;;11.40;99.90;;;;;;5013186;28;19909;-74
2022/06/20 10:52:11;;;;;;;;;;;11.40;99.90;;;;;;5014093;28;19912;-78
2022/06/20 10:54:41;;;;;;;;;;;11.40;99.90;;;;;;5014340;28;20003;-73
2022/06/20 10:57:14;;;;;;;;;;;11.30;99.90;;;;;;5001547;28;19916;-74
2022/06/20 10:59:41;;;;;;;;;;;11.30;99.90;;;;;;5015126;28;19906;-75
2022/06/20 11:02:27;;;;;;;;;;;11.30;99.90;;;;;;5012632;28;19996;-76
2022/06/20 11:05:05;;;;;;;;;;;11.30;99.90;;;;;;5010616;28;19910;-75
2022/06/20 11:07:40;;;;;;;;;;;11.30;99.90;;;;;;5011482;28;19925;-73
2022/06/20 11:10:10;;;;;;;;;;;11.30;99.90;;;;;;5012649;28;20354;-72
2022/06/20 11:13:00;;;;;;;;;;;11.30;99.90;;;;;;5013623;28;19905;-72
2022/06/20 11:15:29;;;;;;;;;;;11.30;99.90;;;;;;4949813;28;20362;-75
2022/06/20 11:18:28;;;;;;;;;;;11.30;99.90;;;;;;4999722;28;19921;-76
2022/06/20 11:20:55;;;;;;;;;;;11.30;99.90;;;;;;5009893;28;20290;-71
2022/06/20 11:23:26;;;;;;;;;;;11.30;99.90;;;;;;5001372;28;19913;-73
2022/06/20 11:26:05;;;;;;;;;;;11.30;99.90;;;;;;4994205;28;19909;-74
2022/06/20 11:28:32;;;;;;;;;;;11.30;99.90;;;;;;5003991;28;19910;-73
2022/06/20 11:31:28;;;;;;;;;;;11.30;99.90;;;;;;5006438;28;19909;-76
2022/06/20 11:34:09;;;;;;;;;;;11.20;99.90;;;;;;4993237;28;19953;-72
2022/06/20 11:36:38;;;;;;;;;;;11.30;99.90;;;;;;5013056;28;20334;-73
2022/06/20 11:39:23;;;;;;;;;;;11.20;99.90;;;;;;5013327;28;19932;-72
2022/06/20 11:42:12;;;;;;;;;;;11.30;99.90;;;;;;5011412;28;20279;-72
2022/06/20 11:44:38;;;;;;;;;;;11.30;99.90;;;;;;5014433;28;19951;-76
2022/06/20 11:47:08;;;;;;;;;;;11.40;99.90;;;;;;5014485;28;19905;-72
2022/06/20 11:49:44;;;;;;;;;;;11.40;99.90;;;;;;5009703;28;19909;-72
2022/06/20 11:52:38;;;;;;;;;;;11.30;99.90;;;;;;5003217;28;19925;-76
2022/06/20 11:55:17;;;;;;;;;;;11.30;99.90;;;;;;5003757;28;20322;-76
2022/06/20 11:57:52;;;;;;;;;;;11.20;99.90;;;;;;5014487;28;19920;-74
2022/06/20 12:00:45;;;;;;;;;;;11.10;99.90;;;;;;5014236;28;19917;-76
2022/06/20 12:03:14;;;;;;;;;;;11.00;99.90;;;;;;5013414;28;19905;-75
2022/06/20 12:05:47;;;;;;;;;;;10.90;99.90;;;;;;5014254;28;20286;-72
2022/06/20 12:08:19;;;;;;;;;;;10.80;99.90;;;;;;5014506;28;20009;-73
2022/06/20 12:10:57;;;;;;;;;;;10.80;99.90;;;;;;5013855;28;19909;-76
2022/06/20 12:13:38;;;;;;;;;;;10.70;99.90;;;;;;5014061;28;19909;-76
2022/06/20 12:16:05;;;;;;;;;;;10.70;99.90;;;;;;5013999;28;19906;-73
2022/06/20 12:18:41;;;;;;;;;;;10.70;99.90;;;;;;5013843;28;19920;-74
2022/06/20 12:23:59;;;;;;;;;;;10.70;99.90;;;;;;5014767;28;19948;-77
2022/06/20 12:26:39;;;;;;;;;;;10.70;99.90;;;;;;5014263;28;19905;-72
2022/06/20 12:29:16;;;;;;;;;;;10.70;99.90;;;;;;5013929;28;19949;-76
2022/06/20 12:31:45;;;;;;;;;;;10.70;99.90;;;;;;5013941;28;20282;-73
2022/06/20 12:34:11;;;;;;;;;;;10.70;99.90;;;;;;5014002;28;19952;-77
2022/06/20 12:36:57;;;;;;;;;;;10.70;99.90;;;;;;5014105;28;20001;-73
2022/06/20 12:39:30;;;;;;;;;;;10.70;99.90;;;;;;5014742;28;20247;-73
2022/06/20 12:42:04;;;;;;;;;;;10.70;99.90;;;;;;5014711;28;19911;-72
2022/06/20 12:44:43;;;;;;;;;;;10.70;99.90;;;;;;5018157;28;20421;-76
2022/06/20 12:47:13;;;;;;;;;;;10.70;99.90;;;;;;5018066;28;20258;-76
2022/06/20 12:49:39;;;;;;;;;;;10.70;99.90;;;;;;5017955;28;19996;-72
2022/06/20 12:52:14;;;;;;;;;;;10.70;99.90;;;;;;5017935;28;19905;-76
2022/06/20 12:54:40;;;;;;;;;;;10.70;99.90;;;;;;5017952;28;19988;-73
2022/06/20 12:57:10;;;;;;;;;;;10.70;99.90;;;;;;5017984;28;19945;-75
2022/06/20 12:59:42;;;;;;;;;;;10.60;99.90;;;;;;5017901;28;19912;-76
2022/06/20 13:02:13;;;;;;;;;;;10.60;99.90;;;;;;5017688;28;19944;-76
2022/06/20 13:04:40;;;;;;;;;;;10.60;99.90;;;;;;5012374;28;20309;-73
2022/06/20 13:07:24;;;;;;;;;;;10.50;99.90;;;;;;5007993;28;19924;-73
2022/06/20 13:10:02;;;;;;;;;;;10.50;99.90;;;;;;5006699;28;19906;-74
2022/06/20 13:12:40;;;;;;;;;;;10.50;99.90;;;;;;5014071;28;19959;-72
2022/06/20 13:15:17;;;;;;;;;;;10.50;99.90;;;;;;5016930;28;20261;-73
2022/06/20 13:18:02;;;;;;;;;;;10.50;99.90;;;;;;5015512;28;20355;-72
2022/06/20 13:20:33;;;;;;;;;;;10.50;99.90;;;;;;5016497;28;20001;-72
2022/06/20 13:23:19;;;;;;;;;;;10.50;99.90;;;;;;5015538;28;20577;-73
2022/06/20 13:26:04;;;;;;;;;;;10.50;99.90;;;;;;5007708;28;20000;-77
2022/06/20 13:28:37;;;;;;;;;;;10.50;99.90;;;;;;5006608;28;19906;-72
2022/06/20 13:31:12;;;;;;;;;;;10.40;99.90;;;;;;5005823;28;20342;-75
2022/06/20 13:33:54;;;;;;;;;;;10.40;99.90;;;;;;5017061;28;20000;-76
2022/06/20 13:36:25;;;;;;;;;;;10.50;99.90;;;;;;5017093;28;20286;-76
2022/06/20 13:39:09;;;;;;;;;;;10.50;99.90;;;;;;5017098;28;19913;-76
2022/06/20 13:41:36;;;;;;;;;;;10.50;99.90;;;;;;5017111;28;19905;-77
2022/06/20 13:44:12;;;;;;;;;;;10.50;99.90;;;;;;5016890;28;19939;-77
2022/06/20 13:46:45;;;;;;;;;;;10.50;99.90;;;;;;5016956;28;19905;-77
2022/06/20 13:49:27;;;;;;;;;;;10.50;99.90;;;;;;5016958;28;20020;-77
2022/06/20 13:51:57;;;;;;;;;;;10.50;99.90;;;;;;5016886;28;19916;-77
2022/06/20 13:54:40;;;;;;;;;;;10.50;99.90;;;;;;5016247;28;19913;-75
2022/06/20 13:57:14;;;;;;;;;;;10.40;99.90;;;;;;5016581;28;19996;-75
2022/06/20 13:59:53;;;;;;;;;;;10.40;99.90;;;;;;5016642;28;19933;-77
2022/06/20 14:02:29;;;;;;;;;;;10.40;99.90;;;;;;5016549;28;19912;-76
2022/06/20 14:04:56;;;;;;;;;;;10.40;99.90;;;;;;5016509;28;19905;-77
2022/06/20 14:07:24;;;;;;;;;;;10.40;99.90;;;;;;5016416;28;20285;-77
2022/06/20 14:09:53;;;;;;;;;;;10.40;99.90;;;;;;5016622;28;19995;-77
2022/06/20 14:12:37;;;;;;;;;;;10.40;99.90;;;;;;5016496;28;19912;-77
2022/06/20 14:15:03;;;;;;;;;;;10.40;99.90;;;;;;5016174;28;19909;-76
2022/06/20 14:17:32;;;;;;;;;;;10.40;99.90;;;;;;5016301;28;19917;-77
2022/06/20 14:20:01;;;;;;;;;;;10.40;99.90;;;;;;5016289;28;20326;-77
2022/06/20 14:22:38;;;;;;;;;;;10.40;99.90;;;;;;5016283;28;19905;-76
2022/06/20 14:25:23;;;;;;;;;;;10.40;99.90;;;;;;5016433;28;19905;-76
2022/06/20 14:27:52;;;;;;;;;;;10.30;99.90;;;;;;5016073;28;20251;-77
2022/06/20 14:30:57;;;;;;;;;;;10.30;99.90;;;;;;5015984;28;19912;-77
2022/06/20 14:33:26;;;;;;;;;;;10.30;99.90;;;;;;4994627;28;19917;-77
2022/06/20 14:35:54;;;;;;;;;;;10.30;99.90;;;;;;5016008;28;19906;-76
2022/06/20 14:38:21;;;;;;;;;;;10.30;99.90;;;;;;5015872;28;19913;-76
2022/06/20 14:41:02;;;;;;;;;;;10.30;99.90;;;;;;5015889;28;19927;-76
2022/06/20 14:43:33;;;;;;;;;;;10.30;99.90;;;;;;5016009;28;19931;-76
2022/06/20 14:46:11;;;;;;;;;;;10.20;99.90;;;;;;5015779;28;19909;-76
2022/06/20 14:48:42;;;;;;;;;;;10.20;99.90;;;;;;5015901;28;20350;-76
2022/06/20 14:51:15;;;;;;;;;;;10.20;99.90;;;;;;5015798;28;19909;-76
2022/06/20 14:53:50;;;;;;;;;;;10.10;99.90;;;;;;5015898;28;19906;-76
2022/06/20 14:56:20;;;;;;;;;;;10.10;99.90;;;;;;5015663;28;20255;-76
2022/06/20 14:58:51;;;;;;;;;;;10.00;99.90;;;;;;5015391;28;20366;-76
2022/06/20 15:01:33;;;;;;;;;;;10.10;99.90;;;;;;5015504;28;19906;-76
2022/06/20 15:04:08;;;;;;;;;;;10.00;99.90;;;;;;5015664;28;19905;-76